Granite Quarry, North Carolina
Current Conditions -  °F | °C
As of 10:55 PM on Sunday 21 Dec 2014 (Local Time) from KRUQ Reporting Station
Drizzle Drizzle  
Wind Chill: 41°   Ceiling: 4200
Heat Index: 44°   Visibility: 10mi
Dew Point: 36°   Wind: 5mph
Humidity: 75%   Direction: 60°ENE
Pressure: 30.2"   Gusts: NA
Location:  35.61°N, 80.45°W
Report Text: KRUQ 220355Z AUTO 06004KT 10SM DZ OVC042 07/02 A3020 RMK AO2 T00650024
Loading
Personal Weather Stations






























Interactive Weather Map New forecast layout! Learn more

10-Day Weather Forecast

Advertisements
Track Severe Weather on mobile